Colombo, Sri Lanka
Current Conditions -  °F | °C
As of 1:10 AM on Saturday 01 Nov 2014 (Local Time) from VCBI Reporting Station
Scattered Clouds Scattered Clouds  
Wind Chill: 77°   Ceiling: Unl
Heat Index: 78°   Visibility: 5mi
Dew Point: 73°   Wind: 0mph
Humidity: 89%   Direction: NA
Pressure: 29.83"   Gusts: NA
Location:  6.93°N, 79.85°E
Report Text: VCBI 311910Z 00000KT 8000 SCT016 25/23 Q1010 NOSIG
Loading
Personal Weather Stations






























Interactive Weather Map
Tropical Storm Tracking
New forecast layout! Learn more

10-Day Weather Forecast

Advertisements
Track Severe Weather on mobile